createdAt,value
2018-06-22T00:00:08.795Z,8.00
2018-06-22T00:01:08.819Z,8.00
2018-06-22T00:02:08.794Z,8.00
2018-06-22T00:03:08.795Z,8.00
2018-06-22T00:04:08.801Z,8.00
2018-06-22T00:05:08.793Z,4.00
2018-06-22T00:06:08.796Z,4.00
2018-06-22T00:07:08.794Z,8.00
2018-06-22T00:08:08.793Z,8.00
2018-06-22T00:09:08.798Z,8.00
2018-06-22T00:10:08.793Z,8.00
2018-06-22T00:11:08.798Z,8.00
2018-06-22T00:12:08.795Z,8.00
2018-06-22T00:13:08.795Z,8.00
2018-06-22T00:14:08.792Z,8.00
2018-06-22T00:15:08.796Z,8.00
2018-06-22T00:16:08.796Z,8.00
2018-06-22T00:17:08.792Z,8.00
2018-06-22T00:18:08.792Z,8.00
2018-06-22T00:19:08.795Z,8.00
2018-06-22T00:20:08.795Z,8.00
2018-06-22T00:21:08.791Z,8.00
2018-06-22T00:22:08.791Z,8.00
2018-06-22T00:23:08.791Z,8.00
2018-06-22T00:24:08.790Z,8.00
2018-06-22T00:25:08.790Z,8.00
2018-06-22T00:26:08.792Z,8.00
2018-06-22T00:27:08.791Z,8.00
2018-06-22T00:28:08.792Z,8.00
2018-06-22T00:29:08.789Z,8.00
2018-06-22T00:30:08.791Z,8.00
2018-06-22T00:31:08.789Z,8.00
2018-06-22T00:32:08.791Z,8.00
2018-06-22T00:33:08.793Z,8.00
2018-06-22T00:34:08.787Z,8.00
2018-06-22T00:35:08.788Z,8.00
2018-06-22T00:36:08.789Z,8.00
2018-06-22T00:37:08.787Z,8.00
2018-06-22T00:38:08.787Z,8.00
2018-06-22T00:39:08.789Z,8.00
2018-06-22T00:40:08.788Z,8.00
2018-06-22T00:41:08.787Z,8.00
2018-06-22T00:42:08.790Z,8.00
2018-06-22T00:43:08.791Z,8.00
2018-06-22T00:44:08.785Z,8.00
2018-06-22T00:45:08.784Z,8.00
2018-06-22T00:46:08.784Z,8.00
2018-06-22T00:47:08.796Z,8.00
2018-06-22T00:48:08.787Z,8.00
2018-06-22T00:49:08.784Z,8.00
2018-06-22T00:50:08.782Z,8.00
2018-06-22T00:51:08.782Z,8.00
2018-06-22T00:52:08.784Z,8.00
2018-06-22T00:53:08.784Z,4.00
2018-06-22T00:54:08.781Z,8.00
2018-06-22T00:55:08.780Z,8.00
2018-06-22T00:56:08.781Z,8.00
2018-06-22T00:57:08.779Z,8.00
2018-06-22T00:58:08.777Z,8.00
2018-06-22T00:59:08.777Z,8.00
2018-06-22T01:00:08.779Z,8.00
2018-06-22T01:01:08.777Z,8.00
2018-06-22T01:02:08.777Z,8.00
2018-06-22T01:03:08.777Z,8.00
2018-06-22T01:04:08.781Z,4.00
2018-06-22T01:05:08.775Z,8.00
2018-06-22T01:06:08.774Z,8.00
2018-06-22T01:07:08.780Z,4.00
2018-06-22T01:08:08.774Z,8.00
2018-06-22T01:09:08.770Z,8.00
2018-06-22T01:10:08.771Z,4.00
2018-06-22T01:11:08.781Z,8.00
2018-06-22T01:12:08.769Z,8.00
2018-06-22T01:13:08.769Z,8.00
2018-06-22T01:14:08.768Z,8.00
2018-06-22T01:15:08.767Z,8.00
2018-06-22T01:16:08.767Z,8.00
2018-06-22T01:17:08.766Z,8.00
2018-06-22T01:18:08.765Z,8.00
2018-06-22T01:19:08.763Z,8.00
2018-06-22T01:20:08.765Z,8.00
2018-06-22T01:21:08.761Z,8.00
2018-06-22T01:22:08.774Z,8.00
2018-06-22T01:23:08.761Z,4.00
2018-06-22T01:24:08.762Z,4.00
2018-06-22T01:25:08.761Z,8.00
2018-06-22T01:26:08.761Z,8.00
2018-06-22T01:27:08.760Z,8.00
2018-06-22T01:28:08.759Z,8.00
2018-06-22T01:29:08.756Z,8.00
2018-06-22T01:30:08.756Z,8.00
2018-06-22T01:31:08.756Z,8.00
2018-06-22T01:32:08.764Z,8.00
2018-06-22T01:33:08.761Z,4.00
2018-06-22T01:34:08.760Z,8.00
2018-06-22T01:35:08.753Z,8.00
2018-06-22T01:36:08.749Z,8.00
2018-06-22T01:37:08.746Z,8.00
2018-06-22T01:38:08.746Z,4.00
2018-06-22T01:39:08.744Z,8.00
2018-06-22T01:40:08.745Z,8.00
2018-06-22T01:41:08.743Z,8.00
2018-06-22T01:42:08.741Z,4.00
2018-06-22T01:43:08.743Z,8.00
2018-06-22T01:44:08.740Z,8.00
2018-06-22T01:45:08.738Z,8.00
2018-06-22T01:46:08.738Z,8.00
2018-06-22T01:47:08.749Z,8.00
2018-06-22T01:48:08.735Z,8.00
2018-06-22T01:49:08.735Z,8.00
2018-06-22T01:50:08.733Z,8.00
2018-06-22T01:51:08.733Z,8.00
2018-06-22T01:52:08.731Z,8.00
2018-06-22T01:53:08.728Z,8.00
2018-06-22T01:54:08.728Z,8.00
2018-06-22T01:55:08.728Z,8.00
2018-06-22T01:56:08.727Z,8.00
2018-06-22T01:57:08.724Z,8.00
2018-06-22T01:58:08.727Z,8.00
2018-06-22T01:59:08.722Z,8.00
2018-06-22T02:00:08.724Z,8.00
2018-06-22T02:01:08.720Z,8.00
2018-06-22T02:02:08.717Z,8.00
2018-06-22T02:03:08.718Z,8.00
2018-06-22T02:04:08.717Z,8.00
2018-06-22T02:05:08.714Z,8.00
2018-06-22T02:06:08.716Z,8.00
2018-06-22T02:07:08.722Z,8.00
2018-06-22T02:08:08.713Z,8.00
2018-06-22T02:09:08.710Z,8.00
2018-06-22T02:10:08.713Z,8.00
2018-06-22T02:11:08.728Z,8.00
2018-06-22T02:12:08.706Z,8.00
2018-06-22T02:13:08.704Z,8.00
2018-06-22T02:14:08.703Z,8.00
2018-06-22T02:15:08.712Z,8.00
2018-06-22T02:16:08.704Z,8.00
2018-06-22T02:17:08.699Z,8.00
2018-06-22T02:18:08.697Z,4.00
2018-06-22T02:19:08.696Z,4.00
2018-06-22T02:20:08.697Z,4.00
2018-06-22T02:21:08.692Z,8.00
2018-06-22T02:22:08.691Z,8.00
2018-06-22T02:23:08.690Z,8.00
2018-06-22T02:24:08.690Z,8.00
2018-06-22T02:25:08.688Z,8.00
2018-06-22T02:26:08.687Z,8.00
2018-06-22T02:27:08.684Z,8.00
2018-06-22T02:28:08.685Z,8.00
2018-06-22T02:29:08.682Z,12.00
2018-06-22T02:30:08.702Z,4.00
2018-06-22T02:31:08.679Z,4.00
2018-06-22T02:32:08.679Z,8.00
2018-06-22T02:33:08.674Z,8.00
2018-06-22T02:34:08.675Z,8.00
2018-06-22T02:35:08.672Z,8.00
2018-06-22T02:36:08.671Z,8.00
2018-06-22T02:37:08.670Z,12.00
2018-06-22T02:38:08.668Z,8.00
2018-06-22T02:39:08.666Z,12.00
2018-06-22T02:40:08.668Z,12.00
2018-06-22T02:41:08.663Z,12.00
2018-06-22T02:42:08.764Z,16.00
2018-06-22T02:43:08.668Z,16.00
2018-06-22T02:44:08.659Z,20.00
2018-06-22T02:45:08.657Z,20.00
2018-06-22T02:46:08.655Z,24.00
2018-06-22T02:47:08.656Z,24.00
2018-06-22T02:48:08.651Z,28.00
2018-06-22T02:49:08.650Z,32.00
2018-06-22T02:50:08.651Z,28.00
2018-06-22T02:51:08.646Z,32.00
2018-06-22T02:52:08.646Z,36.00
2018-06-22T02:53:08.642Z,40.00
2018-06-22T02:54:08.642Z,44.00
2018-06-22T02:55:08.640Z,48.00
2018-06-22T02:56:08.639Z,48.00
2018-06-22T02:57:08.636Z,52.00
2018-06-22T02:58:08.637Z,52.00
2018-06-22T02:59:08.632Z,56.00
2018-06-22T03:00:08.631Z,60.00
2018-06-22T03:01:08.631Z,68.00
2018-06-22T03:02:08.628Z,68.00
2018-06-22T03:03:08.626Z,72.00
2018-06-22T03:04:08.624Z,76.00
2018-06-22T03:05:08.624Z,76.00
2018-06-22T03:06:08.622Z,76.00
2018-06-22T03:07:08.618Z,84.00
2018-06-22T03:08:08.618Z,88.00
2018-06-22T03:09:08.613Z,96.00
2018-06-22T03:10:08.613Z,104.00
2018-06-22T03:11:08.612Z,112.00
2018-06-22T03:12:08.611Z,120.00
2018-06-22T03:13:08.609Z,128.00
2018-06-22T03:14:08.607Z,140.00
2018-06-22T03:15:08.605Z,152.00
2018-06-22T03:16:08.602Z,156.00
2018-06-22T03:17:08.600Z,168.00
2018-06-22T03:18:36.169Z,176.00
2018-06-22T03:19:08.596Z,184.00
2018-06-22T03:20:08.597Z,192.00
2018-06-22T03:21:08.593Z,200.00
2018-06-22T03:22:08.592Z,208.00
2018-06-22T03:23:08.602Z,216.00
2018-06-22T03:24:08.586Z,228.00
2018-06-22T03:25:08.586Z,236.00
2018-06-22T03:26:08.586Z,236.00
2018-06-22T03:27:08.583Z,236.00
2018-06-22T03:28:08.585Z,232.00
2018-06-22T03:29:08.580Z,212.00
2018-06-22T03:30:08.579Z,204.00
2018-06-22T03:31:08.576Z,204.00
2018-06-22T03:32:08.603Z,212.00
2018-06-22T03:33:08.574Z,228.00
2018-06-22T03:34:08.570Z,236.00
2018-06-22T03:35:08.570Z,248.00
2018-06-22T03:36:08.568Z,264.00
2018-06-22T03:37:08.566Z,276.00
2018-06-22T03:38:08.590Z,288.00
2018-06-22T03:39:08.561Z,308.00
2018-06-22T03:40:08.559Z,324.00
2018-06-22T03:41:08.557Z,356.00
2018-06-22T03:42:08.557Z,408.00
2018-06-22T03:43:08.556Z,452.00
2018-06-22T03:44:08.552Z,492.00
2018-06-22T03:45:08.554Z,504.00
2018-06-22T03:46:08.551Z,524.00
2018-06-22T03:47:08.548Z,544.00
2018-06-22T03:48:08.546Z,596.00
2018-06-22T03:49:08.545Z,744.00
2018-06-22T03:50:08.542Z,572.00
2018-06-22T03:51:08.541Z,564.00
2018-06-22T03:52:08.543Z,560.00
2018-06-22T03:53:08.538Z,564.00
2018-06-22T03:54:08.536Z,912.00
2018-06-22T03:55:08.535Z,908.00
2018-06-22T03:56:08.535Z,576.00
2018-06-22T03:57:08.532Z,668.00
2018-06-22T03:58:08.530Z,620.00
2018-06-22T03:59:08.528Z,472.00
2018-06-22T04:00:08.528Z,412.00
2018-06-22T04:01:08.528Z,352.00
2018-06-22T04:02:08.524Z,332.00
2018-06-22T04:03:08.529Z,328.00
2018-06-22T04:04:08.522Z,388.00
2018-06-22T04:05:08.531Z,464.00
2018-06-22T04:06:08.522Z,408.00
2018-06-22T04:07:08.517Z,500.00
2018-06-22T04:08:08.580Z,628.00
2018-06-22T04:09:08.514Z,704.00
2018-06-22T04:10:08.515Z,716.00
2018-06-22T04:11:08.514Z,640.00
2018-06-22T04:12:08.512Z,468.00
2018-06-22T04:13:08.519Z,384.00
2018-06-22T04:14:08.507Z,348.00
2018-06-22T04:15:08.506Z,352.00
2018-06-22T04:16:08.507Z,368.00
2018-06-22T04:17:08.503Z,392.00
2018-06-22T04:18:08.507Z,364.00
2018-06-22T04:19:08.502Z,440.00
2018-06-22T04:20:08.499Z,568.00
2018-06-22T04:21:08.498Z,784.00
2018-06-22T04:22:08.497Z,984.00
2018-06-22T04:23:08.502Z,1056.00
2018-06-22T04:24:08.494Z,968.00
2018-06-22T04:25:08.493Z,908.00
2018-06-22T04:26:08.493Z,912.00
2018-06-22T04:27:08.493Z,912.00
2018-06-22T04:28:08.490Z,800.00
2018-06-22T04:29:08.490Z,748.00
2018-06-22T04:30:08.487Z,876.00
2018-06-22T04:31:08.486Z,1040.00
2018-06-22T04:32:08.486Z,2256.00
2018-06-22T04:33:08.485Z,2240.00
2018-06-22T04:34:08.481Z,1944.00
2018-06-22T04:35:08.480Z,2208.00
2018-06-22T04:36:08.480Z,2144.00
2018-06-22T04:37:08.477Z,1084.00
2018-06-22T04:38:08.476Z,1068.00
2018-06-22T04:39:08.481Z,956.00
2018-06-22T04:40:08.474Z,836.00
2018-06-22T04:41:08.474Z,800.00
2018-06-22T04:42:08.470Z,804.00
2018-06-22T04:43:08.470Z,852.00
2018-06-22T04:44:08.470Z,856.00
2018-06-22T04:45:08.467Z,880.00
2018-06-22T04:46:08.468Z,912.00
2018-06-22T04:47:08.465Z,872.00
2018-06-22T04:48:08.468Z,936.00
2018-06-22T04:49:08.464Z,944.00
2018-06-22T04:50:08.461Z,964.00
2018-06-22T04:51:08.460Z,1060.00
2018-06-22T04:52:08.458Z,1244.00
2018-06-22T04:53:08.456Z,1308.00
2018-06-22T04:54:08.482Z,1236.00
2018-06-22T04:55:08.455Z,1144.00
2018-06-22T04:56:08.456Z,1132.00
2018-06-22T04:57:08.451Z,1104.00
2018-06-22T04:58:08.450Z,1100.00
2018-06-22T04:59:08.451Z,1072.00
2018-06-22T05:00:08.448Z,1100.00
2018-06-22T05:01:08.444Z,1084.00
2018-06-22T05:02:08.443Z,1072.00
2018-06-22T05:03:08.442Z,1192.00
2018-06-22T05:04:08.445Z,1248.00
2018-06-22T05:05:08.441Z,1248.00
2018-06-22T05:06:08.439Z,1280.00
2018-06-22T05:07:08.445Z,1240.00
2018-06-22T05:08:08.435Z,1160.00
2018-06-22T05:09:08.433Z,1112.00
2018-06-22T05:10:08.432Z,1072.00
2018-06-22T05:11:08.431Z,1056.00
2018-06-22T05:12:08.432Z,1000.00
2018-06-22T05:13:08.429Z,968.00
2018-06-22T05:14:08.427Z,976.00
2018-06-22T05:15:08.426Z,1008.00
2018-06-22T05:16:08.428Z,1088.00
2018-06-22T05:17:08.425Z,1156.00
2018-06-22T05:18:08.422Z,1272.00
2018-06-22T05:19:08.422Z,1424.00
2018-06-22T05:20:08.420Z,1436.00
2018-06-22T05:21:08.420Z,1356.00
2018-06-22T05:22:08.419Z,1192.00
2018-06-22T05:23:08.418Z,1208.00
2018-06-22T05:24:08.421Z,1348.00
2018-06-22T05:25:08.417Z,1612.00
2018-06-22T05:26:08.414Z,2096.00
2018-06-22T05:27:08.414Z,4176.00
2018-06-22T05:28:08.413Z,4684.00
2018-06-22T05:29:08.411Z,2664.00
2018-06-22T05:30:08.410Z,3360.00
2018-06-22T05:31:08.409Z,2216.00
2018-06-22T05:32:08.421Z,11880.00
2018-06-22T05:33:08.406Z,10684.00
2018-06-22T05:34:08.405Z,16384.00
2018-06-22T05:35:08.409Z,12596.00
2018-06-22T05:36:08.448Z,22176.00
2018-06-22T05:37:08.405Z,21696.00
2018-06-22T05:38:08.404Z,19520.00
2018-06-22T05:39:08.405Z,5304.00
2018-06-22T05:40:08.405Z,3708.00
2018-06-22T05:41:08.405Z,3344.00
2018-06-22T05:42:08.416Z,3156.00
2018-06-22T05:43:08.406Z,3068.00
2018-06-22T05:44:08.410Z,2964.00
2018-06-22T05:45:08.407Z,2768.00
2018-06-22T05:46:08.409Z,2492.00
2018-06-22T05:47:08.407Z,2264.00
2018-06-22T05:48:08.408Z,2132.00
2018-06-22T05:49:08.408Z,2092.00
2018-06-22T05:50:08.411Z,2020.00
2018-06-22T05:51:08.417Z,1840.00
2018-06-22T05:52:08.411Z,1776.00
2018-06-22T05:53:08.410Z,1860.00
2018-06-22T05:54:08.417Z,1924.00
2018-06-22T05:55:08.415Z,1920.00
2018-06-22T05:56:08.411Z,1856.00
2018-06-22T05:57:08.418Z,1808.00
2018-06-22T05:58:08.411Z,1728.00
2018-06-22T05:59:08.411Z,1628.00
2018-06-22T06:00:08.413Z,1524.00
2018-06-22T06:01:08.413Z,1372.00
2018-06-22T06:02:08.410Z,1232.00
2018-06-22T06:03:08.414Z,1128.00
2018-06-22T06:04:08.411Z,1052.00
2018-06-22T06:05:08.410Z,1020.00
2018-06-22T06:06:08.411Z,1124.00
2018-06-22T06:07:08.441Z,1340.00
2018-06-22T06:08:08.411Z,1592.00
2018-06-22T06:09:08.413Z,1940.00
2018-06-22T06:10:08.409Z,2152.00
2018-06-22T06:11:08.415Z,2280.00
2018-06-22T06:12:08.421Z,2388.00
2018-06-22T06:13:08.409Z,2488.00
2018-06-22T06:14:08.407Z,2560.00
2018-06-22T06:15:08.422Z,2568.00
2018-06-22T06:16:08.412Z,2568.00
2018-06-22T06:17:08.413Z,2556.00
2018-06-22T06:18:08.408Z,2544.00
2018-06-22T06:19:08.428Z,2488.00
2018-06-22T06:20:08.429Z,2380.00
2018-06-22T06:21:08.413Z,2248.00
2018-06-22T06:22:08.409Z,2040.00
2018-06-22T06:23:08.412Z,1636.00
2018-06-22T06:24:08.407Z,1400.00
2018-06-22T06:25:08.407Z,1248.00
2018-06-22T06:26:08.409Z,1212.00
2018-06-22T06:27:08.432Z,1436.00
2018-06-22T06:28:08.406Z,1588.00
2018-06-22T06:29:08.418Z,1692.00
2018-06-22T06:30:08.407Z,1704.00
2018-06-22T06:31:08.407Z,1864.00
2018-06-22T06:32:08.407Z,1940.00
2018-06-22T06:33:08.410Z,1928.00
2018-06-22T06:34:08.411Z,1908.00
2018-06-22T06:35:08.549Z,1916.00
2018-06-22T06:36:08.408Z,1916.00
2018-06-22T06:37:08.486Z,1912.00
2018-06-22T06:38:08.405Z,1840.00
2018-06-22T06:39:08.406Z,1712.00
2018-06-22T06:40:08.407Z,1668.00
2018-06-22T06:41:08.408Z,1616.00
2018-06-22T06:42:08.406Z,1740.00
2018-06-22T06:43:08.406Z,1572.00
2018-06-22T06:44:08.420Z,1648.00
2018-06-22T06:45:08.413Z,1656.00
2018-06-22T06:46:08.412Z,1644.00
2018-06-22T06:47:08.405Z,1568.00
2018-06-22T06:48:08.406Z,1436.00
2018-06-22T06:49:08.406Z,1304.00
2018-06-22T06:50:08.409Z,1172.00
2018-06-22T06:51:08.406Z,1220.00
2018-06-22T06:52:08.407Z,1320.00
2018-06-22T06:53:08.406Z,1296.00
2018-06-22T06:54:08.405Z,1380.00
2018-06-22T06:55:08.405Z,1324.00
2018-06-22T06:56:08.406Z,1204.00
2018-06-22T06:57:08.402Z,1224.00
2018-06-22T06:58:08.409Z,1216.00
2018-06-22T06:59:08.402Z,1276.00
2018-06-22T07:00:08.403Z,1340.00
2018-06-22T07:01:08.402Z,1360.00
2018-06-22T07:02:08.403Z,1448.00
2018-06-22T07:03:08.406Z,1588.00
2018-06-22T07:04:08.402Z,1828.00
2018-06-22T07:05:08.593Z,1868.00
2018-06-22T07:06:08.402Z,1756.00
2018-06-22T07:07:08.406Z,1588.00
2018-06-22T07:08:08.403Z,1472.00
2018-06-22T07:09:08.401Z,1536.00
2018-06-22T07:10:08.399Z,1564.00
2018-06-22T07:11:08.401Z,1468.00
2018-06-22T07:12:08.399Z,1272.00
2018-06-22T07:13:08.414Z,1152.00
2018-06-22T07:14:08.400Z,1180.00
2018-06-22T07:15:08.398Z,1144.00
2018-06-22T07:16:08.398Z,1108.00
2018-06-22T07:17:08.476Z,1060.00
2018-06-22T07:18:08.483Z,1024.00
2018-06-22T07:19:08.417Z,996.00
2018-06-22T07:20:08.403Z,1008.00
2018-06-22T07:21:08.395Z,1032.00
2018-06-22T07:22:08.398Z,952.00
2018-06-22T07:23:08.397Z,920.00
2018-06-22T07:24:08.397Z,984.00
2018-06-22T07:25:08.394Z,988.00
2018-06-22T07:26:08.399Z,948.00
2018-06-22T07:27:08.400Z,944.00
2018-06-22T07:28:08.392Z,864.00
2018-06-22T07:29:08.391Z,760.00
2018-06-22T07:30:08.392Z,788.00
2018-06-22T07:31:08.391Z,824.00
2018-06-22T07:32:08.390Z,864.00
2018-06-22T07:33:08.389Z,836.00
2018-06-22T07:34:08.387Z,740.00
2018-06-22T07:35:08.390Z,820.00
2018-06-22T07:36:08.388Z,1052.00
2018-06-22T07:37:08.389Z,1152.00
2018-06-22T07:38:09.416Z,1260.00
2018-06-22T07:39:08.409Z,1208.00
2018-06-22T07:40:08.399Z,1088.00
2018-06-22T07:41:09.574Z,1188.00
2018-06-22T07:42:08.381Z,1284.00
2018-06-22T07:43:08.384Z,1372.00
2018-06-22T07:44:08.497Z,1436.00
2018-06-22T07:45:08.710Z,1620.00
2018-06-22T07:46:08.382Z,1924.00
2018-06-22T07:47:08.378Z,2216.00
2018-06-22T07:48:08.380Z,2460.00
2018-06-22T07:49:08.380Z,2616.00
2018-06-22T07:50:08.380Z,2648.00
2018-06-22T07:51:08.375Z,2692.00
2018-06-22T07:52:08.381Z,2632.00
2018-06-22T07:53:08.373Z,2552.00
2018-06-22T07:54:08.382Z,2700.00
2018-06-22T07:55:08.381Z,2800.00
2018-06-22T07:56:08.437Z,2940.00
2018-06-22T07:57:08.920Z,2972.00
2018-06-22T07:58:08.373Z,2848.00
2018-06-22T07:59:08.502Z,2856.00
2018-06-22T08:00:08.368Z,2912.00
2018-06-22T08:01:08.382Z,2924.00
2018-06-22T08:02:08.367Z,2888.00
2018-06-22T08:03:08.366Z,2828.00
2018-06-22T08:04:08.366Z,2736.00
2018-06-22T08:05:08.424Z,2764.00
2018-06-22T08:06:08.421Z,2868.00
2018-06-22T08:07:08.368Z,3036.00
2018-06-22T08:08:08.370Z,3300.00
2018-06-22T08:09:08.364Z,3528.00
2018-06-22T08:10:08.365Z,3620.00
2018-06-22T08:11:08.360Z,3576.00
2018-06-22T08:12:08.506Z,3444.00
2018-06-22T08:13:08.359Z,3224.00
2018-06-22T08:14:08.359Z,2992.00
2018-06-22T08:15:08.359Z,2824.00
2018-06-22T08:16:08.363Z,2600.00
2018-06-22T08:17:08.360Z,2352.00
2018-06-22T08:18:08.357Z,2116.00
2018-06-22T08:19:08.356Z,2348.00
2018-06-22T08:20:08.357Z,2580.00
2018-06-22T08:21:08.356Z,2572.00
2018-06-22T08:22:08.371Z,2568.00
2018-06-22T08:23:08.355Z,2560.00
2018-06-22T08:24:08.354Z,2696.00
2018-06-22T08:25:08.356Z,2680.00
2018-06-22T08:26:08.352Z,2472.00
2018-06-22T08:27:08.352Z,2228.00
2018-06-22T08:28:08.355Z,2356.00
2018-06-22T08:29:08.351Z,2520.00
2018-06-22T08:30:08.352Z,2776.00
2018-06-22T08:31:08.505Z,2744.00
2018-06-22T08:32:08.349Z,2460.00
2018-06-22T08:33:08.350Z,2216.00
2018-06-22T08:34:08.351Z,2432.00
2018-06-22T08:35:08.353Z,2348.00
2018-06-22T08:36:08.348Z,2176.00
2018-06-22T08:37:08.353Z,2340.00
2018-06-22T08:38:08.347Z,2316.00
2018-06-22T08:39:08.348Z,2132.00
2018-06-22T08:40:08.348Z,2012.00
2018-06-22T08:41:08.347Z,2004.00
2018-06-22T08:42:08.449Z,1992.00
2018-06-22T08:43:08.342Z,2016.00
2018-06-22T08:44:08.391Z,2084.00
2018-06-22T08:45:08.560Z,1912.00
2018-06-22T08:46:08.340Z,1720.00
2018-06-22T08:47:08.339Z,1916.00
2018-06-22T08:48:08.338Z,1808.00
2018-06-22T08:49:08.337Z,1756.00
2018-06-22T08:50:08.338Z,1748.00
2018-06-22T08:51:08.336Z,1656.00
2018-06-22T08:52:08.338Z,1768.00
2018-06-22T08:53:08.334Z,1932.00
2018-06-22T08:54:08.335Z,2024.00
2018-06-22T08:55:08.334Z,2064.00
2018-06-22T08:56:08.332Z,1904.00
2018-06-22T08:57:08.399Z,1768.00
2018-06-22T08:58:08.332Z,1912.00
2018-06-22T08:59:08.328Z,1988.00
2018-06-22T09:00:08.336Z,2184.00
2018-06-22T09:01:08.388Z,2360.00
2018-06-22T09:02:08.336Z,2348.00
2018-06-22T09:03:08.324Z,2320.00
2018-06-22T09:04:08.323Z,2440.00
2018-06-22T09:05:08.770Z,2388.00
2018-06-22T09:06:08.319Z,2280.00
2018-06-22T09:07:08.320Z,2124.00
2018-06-22T09:08:08.329Z,2220.00
2018-06-22T09:09:08.321Z,2224.00
2018-06-22T09:10:08.325Z,2512.00
2018-06-22T09:11:08.314Z,2712.00
2018-06-22T09:12:08.314Z,2872.00
2018-06-22T09:13:08.404Z,2972.00
2018-06-22T09:14:08.311Z,3036.00
2018-06-22T09:15:08.309Z,3048.00
2018-06-22T09:16:08.315Z,3036.00
2018-06-22T09:17:08.320Z,2944.00
2018-06-22T09:18:08.590Z,2920.00
2018-06-22T09:19:08.415Z,2976.00
2018-06-22T09:20:08.307Z,3084.00
2018-06-22T09:21:08.324Z,3204.00
2018-06-22T09:22:08.306Z,3296.00
2018-06-22T09:23:08.376Z,3036.00
2018-06-22T09:24:08.459Z,2868.00
2018-06-22T09:25:08.354Z,3220.00
2018-06-22T09:26:08.366Z,3108.00
2018-06-22T09:27:08.309Z,2764.00
2018-06-22T09:28:08.297Z,2760.00
2018-06-22T09:29:08.401Z,2920.00
2018-06-22T09:30:08.513Z,2832.00
2018-06-22T09:31:08.288Z,2848.00
2018-06-22T09:32:08.287Z,3320.00
2018-06-22T09:33:08.337Z,3320.00
2018-06-22T09:34:08.284Z,3148.00
2018-06-22T09:35:08.283Z,3016.00
2018-06-22T09:36:08.286Z,3472.00
2018-06-22T09:37:08.292Z,3792.00
2018-06-22T09:38:08.279Z,3852.00
2018-06-22T09:39:08.284Z,3912.00
2018-06-22T09:40:08.278Z,3972.00
2018-06-22T09:41:08.278Z,4104.00
2018-06-22T09:42:08.318Z,4260.00
2018-06-22T09:43:08.284Z,4084.00
2018-06-22T09:44:08.287Z,3988.00
2018-06-22T09:45:08.330Z,3688.00
2018-06-22T09:46:11.438Z,3708.00
2018-06-22T09:47:08.273Z,3676.00
2018-06-22T09:48:08.273Z,3108.00
2018-06-22T09:49:08.280Z,2792.00
2018-06-22T09:50:08.438Z,2772.00
2018-06-22T09:51:08.270Z,2780.00
2018-06-22T09:52:08.269Z,2448.00
2018-06-22T09:53:08.351Z,2072.00
2018-06-22T09:54:08.461Z,1948.00
2018-06-22T09:55:08.321Z,1884.00
2018-06-22T09:56:08.529Z,2440.00
2018-06-22T09:57:08.263Z,2484.00
2018-06-22T09:58:08.316Z,2412.00
2018-06-22T09:59:08.263Z,2176.00
2018-06-22T10:00:08.260Z,1812.00
2018-06-22T10:01:08.262Z,1636.00
2018-06-22T10:02:08.328Z,1624.00
2018-06-22T10:03:08.626Z,2064.00
2018-06-22T10:04:08.257Z,1740.00
2018-06-22T10:05:08.256Z,1916.00
2018-06-22T10:06:08.735Z,2260.00
2018-06-22T10:07:08.258Z,2080.00
2018-06-22T10:08:08.268Z,1920.00
2018-06-22T10:09:09.469Z,2148.00
2018-06-22T10:10:08.654Z,2320.00
2018-06-22T10:11:08.284Z,2192.00
2018-06-22T10:12:08.252Z,2592.00
2018-06-22T10:13:08.318Z,4128.00
2018-06-22T10:14:08.251Z,6060.00
2018-06-22T10:15:08.341Z,5676.00
2018-06-22T10:16:08.248Z,6320.00
2018-06-22T10:17:08.246Z,21280.00
2018-06-22T10:18:08.398Z,20064.00
2018-06-22T10:19:08.246Z,11756.00
2018-06-22T10:20:08.249Z,7256.00
2018-06-22T10:21:08.246Z,4468.00
2018-06-22T10:22:08.246Z,4640.00
2018-06-22T10:23:08.337Z,5332.00
2018-06-22T10:24:08.293Z,8028.00
2018-06-22T10:25:08.247Z,9684.00
2018-06-22T10:26:08.256Z,7808.00
2018-06-22T10:27:09.237Z,7532.00
2018-06-22T10:28:08.404Z,7900.00
2018-06-22T10:29:08.251Z,7076.00
2018-06-22T10:30:08.251Z,5492.00
2018-06-22T10:31:08.304Z,4428.00
2018-06-22T10:32:08.255Z,3556.00
2018-06-22T10:33:08.255Z,2228.00
2018-06-22T10:34:08.261Z,2392.00
2018-06-22T10:35:08.262Z,2092.00
2018-06-22T10:36:08.266Z,2056.00
2018-06-22T10:37:08.260Z,2156.00
2018-06-22T10:38:08.263Z,2916.00
2018-06-22T10:39:09.267Z,3044.00
2018-06-22T10:40:08.262Z,2912.00
2018-06-22T10:41:08.264Z,3100.00
2018-06-22T10:42:08.265Z,2916.00
2018-06-22T10:43:08.266Z,2364.00
2018-06-22T10:44:08.265Z,2000.00
2018-06-22T10:45:08.267Z,2144.00
2018-06-22T10:46:08.327Z,2424.00
2018-06-22T10:47:08.268Z,2632.00
2018-06-22T10:48:08.621Z,2372.00
2018-06-22T10:49:08.268Z,2252.00
2018-06-22T10:50:08.270Z,2320.00
2018-06-22T10:51:08.268Z,2440.00
2018-06-22T10:52:08.269Z,2536.00
2018-06-22T10:53:08.270Z,2444.00
2018-06-22T10:54:08.299Z,2604.00
2018-06-22T10:55:08.270Z,2788.00
2018-06-22T10:56:08.280Z,2876.00
2018-06-22T10:57:08.270Z,2952.00
2018-06-22T10:58:08.274Z,3308.00
2018-06-22T10:59:08.270Z,3896.00
2018-06-22T11:00:08.271Z,4312.00
2018-06-22T11:01:08.274Z,4528.00
2018-06-22T11:02:08.277Z,4448.00
2018-06-22T11:03:08.272Z,4868.00
2018-06-22T11:04:08.272Z,4712.00
2018-06-22T11:05:09.259Z,4812.00
2018-06-22T11:06:08.324Z,4716.00
2018-06-22T11:07:08.275Z,5056.00
2018-06-22T11:08:08.298Z,4984.00
2018-06-22T11:09:08.274Z,4892.00
2018-06-22T11:10:08.292Z,4700.00
2018-06-22T11:11:08.283Z,5644.00
2018-06-22T11:12:08.298Z,4512.00
2018-06-22T11:13:08.274Z,3916.00
2018-06-22T11:14:08.278Z,3824.00
2018-06-22T11:15:08.359Z,3976.00
2018-06-22T11:16:08.283Z,4056.00
2018-06-22T11:17:08.434Z,4188.00
2018-06-22T11:18:08.277Z,4084.00
2018-06-22T11:19:08.278Z,4020.00
2018-06-22T11:20:08.347Z,3768.00
2018-06-22T11:21:08.339Z,4416.00
2018-06-22T11:22:08.656Z,3908.00
2018-06-22T11:23:08.284Z,3756.00
2018-06-22T11:24:08.281Z,4312.00
2018-06-22T11:25:08.295Z,5116.00
2018-06-22T11:26:08.281Z,5100.00
2018-06-22T11:27:08.358Z,4740.00
2018-06-22T11:28:08.287Z,4692.00
2018-06-22T11:29:08.380Z,4432.00
2018-06-22T11:30:08.451Z,4296.00
2018-06-22T11:31:08.353Z,4208.00
2018-06-22T11:32:08.346Z,4164.00
2018-06-22T11:33:08.437Z,3876.00
2018-06-22T11:34:08.288Z,3644.00
2018-06-22T11:35:08.290Z,3412.00
2018-06-22T11:36:08.567Z,3572.00
2018-06-22T11:37:08.385Z,3656.00
2018-06-22T11:38:08.290Z,4024.00
2018-06-22T11:39:08.292Z,4800.00
2018-06-22T11:40:08.292Z,6432.00
2018-06-22T11:41:08.292Z,12940.00
2018-06-22T11:42:08.294Z,11024.00
2018-06-22T11:43:08.488Z,6132.00
2018-06-22T11:44:08.298Z,6072.00
2018-06-22T11:45:08.298Z,5404.00
2018-06-22T11:46:08.345Z,5480.00
2018-06-22T11:47:08.309Z,5612.00
2018-06-22T11:48:08.334Z,5616.00
2018-06-22T11:49:08.305Z,4988.00
2018-06-22T11:50:08.309Z,4520.00
2018-06-22T11:51:08.342Z,4604.00
2018-06-22T11:52:08.307Z,4752.00
2018-06-22T11:53:08.308Z,4516.00
2018-06-22T11:54:08.310Z,4308.00
2018-06-22T11:55:08.312Z,4204.00
2018-06-22T11:56:08.316Z,3788.00
2018-06-22T11:57:08.315Z,4080.00
2018-06-22T11:58:08.331Z,4156.00
2018-06-22T11:59:08.363Z,3988.00
2018-06-22T12:00:08.322Z,3176.00
2018-06-22T12:01:08.327Z,2352.00
2018-06-22T12:02:08.321Z,1800.00
2018-06-22T12:03:08.820Z,1500.00
2018-06-22T12:04:08.333Z,1556.00
2018-06-22T12:05:08.325Z,2064.00
2018-06-22T12:06:08.329Z,2376.00
2018-06-22T12:07:08.329Z,2208.00
2018-06-22T12:08:08.330Z,2108.00
2018-06-22T12:09:09.275Z,1992.00
2018-06-22T12:10:08.719Z,1724.00
2018-06-22T12:11:08.370Z,1520.00
2018-06-22T12:12:08.336Z,1960.00
2018-06-22T12:13:08.431Z,2736.00
2018-06-22T12:14:08.477Z,3316.00
2018-06-22T12:15:08.342Z,3348.00
2018-06-22T12:16:08.346Z,2824.00
2018-06-22T12:17:08.348Z,2616.00
2018-06-22T12:18:08.349Z,2164.00
2018-06-22T12:19:08.411Z,2136.00
2018-06-22T12:20:08.350Z,2444.00
2018-06-22T12:21:08.346Z,3296.00
2018-06-22T12:22:08.443Z,4308.00
2018-06-22T12:23:08.350Z,6156.00
2018-06-22T12:24:08.353Z,7368.00